Time;durP1;ratioP1;P1;durP2;ratioP2;P2;SDS_P1;SDS_P2;PMS_P1;PMS_P2;Temp;Humidity;BMP_temperature;BMP_pressure;BME280_temperature;BME280_humidity;BME280_pressure;Samples;Min_cycle;Max_cycle;Signal;HPM_P1;HPM_P2
2023/01/13 00:01:14;;;;;;;18.27;3.30;;;;;;;;;;5072598;28;20239;-80
2023/01/13 00:03:39;;;;;;;24.03;4.77;;;;;;;;;;5060807;28;20268;-81
2023/01/13 00:06:04;;;;;;;12.60;3.63;;;;;;;;;;5057026;28;20301;-80
2023/01/13 00:08:29;;;;;;;21.07;5.93;;;;;;;;;;5059689;28;20192;-79
2023/01/13 00:10:55;;;;;;;24.17;5.63;;;;;;;;;;5075379;28;20384;-79
2023/01/13 00:13:25;;;;;;;31.53;7.83;;;;;;;;;;5059003;28;20280;-79
2023/01/13 00:16:07;;;;;;;19.60;4.83;;;;;;;;;;5069338;28;20213;-79
2023/01/13 00:18:32;;;;;;;24.50;4.50;;;;;;;;;;5054394;28;20209;-79
2023/01/13 00:21:00;;;;;;;16.90;4.13;;;;;;;;;;5056857;28;20735;-81
2023/01/13 00:23:29;;;;;;;20.80;4.73;;;;;;;;;;5053644;28;20181;-79
2023/01/13 00:25:58;;;;;;;14.67;3.40;;;;;;;;;;5062883;28;20205;-81
2023/01/13 00:28:24;;;;;;;27.77;5.07;;;;;;;;;;5062076;28;20169;-79
2023/01/13 00:30:49;;;;;;;23.00;4.27;;;;;;;;;;5068356;28;20187;-81
2023/01/13 00:33:14;;;;;;;20.47;4.47;;;;;;;;;;5061929;28;20739;-81
2023/01/13 00:35:40;;;;;;;22.83;4.70;;;;;;;;;;5056753;28;20184;-81
2023/01/13 00:38:05;;;;;;;23.83;5.40;;;;;;;;;;5057636;28;20205;-82
2023/01/13 00:40:30;;;;;;;25.80;4.53;;;;;;;;;;5069257;28;20193;-81
2023/01/13 00:45:39;;;;;;;12.90;3.00;;;;;;;;;;5061992;28;20241;-81
2023/01/13 00:48:04;;;;;;;13.97;3.73;;;;;;;;;;5052763;28;20181;-81
2023/01/13 00:50:30;;;;;;;22.33;5.07;;;;;;;;;;5056828;28;20353;-80
2023/01/13 00:52:59;;;;;;;24.40;4.90;;;;;;;;;;5054185;28;20207;-83
2023/01/13 00:55:24;;;;;;;23.83;3.53;;;;;;;;;;5069107;28;20169;-81
2023/01/13 00:57:49;;;;;;;19.60;4.27;;;;;;;;;;5070240;28;20704;-80
2023/01/13 01:00:14;;;;;;;16.33;4.17;;;;;;;;;;5055581;28;20192;-81
2023/01/13 01:02:40;;;;;;;16.00;4.27;;;;;;;;;;5072045;28;20173;-80
2023/01/13 01:05:05;;;;;;;19.77;4.07;;;;;;;;;;5064667;28;20169;-80
2023/01/13 01:07:30;;;;;;;22.33;5.27;;;;;;;;;;5051817;28;20200;-80
2023/01/13 01:09:55;;;;;;;23.00;4.93;;;;;;;;;;5063594;28;21576;-81
2023/01/13 01:12:21;;;;;;;16.10;4.03;;;;;;;;;;5065111;28;20631;-80
2023/01/13 01:14:46;;;;;;;17.33;4.33;;;;;;;;;;5060560;28;20189;-80
2023/01/13 01:17:11;;;;;;;17.23;4.60;;;;;;;;;;5063191;28;20213;-80
2023/01/13 01:19:37;;;;;;;19.63;4.00;;;;;;;;;;5057671;28;20174;-80
2023/01/13 01:22:02;;;;;;;23.90;5.13;;;;;;;;;;5057039;28;20204;-80
2023/01/13 01:24:28;;;;;;;11.20;3.47;;;;;;;;;;5056604;28;20212;-81
2023/01/13 01:26:53;;;;;;;17.30;3.53;;;;;;;;;;5054342;28;20201;-80
2023/01/13 01:29:18;;;;;;;18.63;4.17;;;;;;;;;;5054281;28;20181;-80
2023/01/13 01:31:43;;;;;;;24.20;5.80;;;;;;;;;;5052930;28;20319;-80
2023/01/13 01:34:09;;;;;;;20.77;4.43;;;;;;;;;;5059009;28;20178;-80
2023/01/13 01:36:35;;;;;;;19.27;3.83;;;;;;;;;;5063641;28;20204;-81
2023/01/13 01:39:01;;;;;;;21.77;4.10;;;;;;;;;;5069381;28;20262;-81
2023/01/13 01:41:28;;;;;;;18.63;4.83;;;;;;;;;;5070827;28;20180;-80
2023/01/13 01:44:07;;;;;;;23.73;4.00;;;;;;;;;;5072209;28;20642;-80
2023/01/13 01:46:32;;;;;;;20.63;3.57;;;;;;;;;;5064313;28;20197;-80
2023/01/13 01:49:12;;;;;;;17.93;4.23;;;;;;;;;;5060051;28;20268;-80
2023/01/13 01:51:40;;;;;;;21.70;4.00;;;;;;;;;;5068103;28;20274;-80
2023/01/13 01:54:07;;;;;;;17.13;3.80;;;;;;;;;;5068933;28;20332;-80
2023/01/13 01:56:33;;;;;;;14.87;3.80;;;;;;;;;;5068524;28;21014;-80
2023/01/13 01:58:58;;;;;;;17.93;5.30;;;;;;;;;;5071441;28;20211;-80
2023/01/13 02:01:24;;;;;;;20.17;5.20;;;;;;;;;;5071001;28;20177;-80
2023/01/13 02:03:54;;;;;;;15.73;3.90;;;;;;;;;;5068416;28;20189;-79
2023/01/13 02:06:19;;;;;;;23.67;5.00;;;;;;;;;;5070242;28;20205;-81
2023/01/13 02:08:45;;;;;;;26.87;5.67;;;;;;;;;;5060661;28;20250;-77
2023/01/13 02:12:28;;;;;;;26.60;5.53;;;;;;;;;;5067882;28;20177;-81
2023/01/13 02:14:10;;;;;;;27.13;6.30;;;;;;;;;;5051214;28;20674;-81
2023/01/13 02:16:38;;;;;;;25.27;4.97;;;;;;;;;;5052808;28;20224;-80
2023/01/13 02:19:06;;;;;;;26.23;5.60;;;;;;;;;;5055910;28;20781;-81
2023/01/13 02:21:31;;;;;;;26.37;5.47;;;;;;;;;;5050656;28;20546;-80
2023/01/13 02:27:09;;;;;;;21.80;4.53;;;;;;;;;;5056502;28;20215;-79
2023/01/13 02:32:42;;;;;;;17.00;4.67;;;;;;;;;;5050593;28;20188;-79
2023/01/13 02:35:12;;;;;;;23.33;5.23;;;;;;;;;;5057946;28;20556;-79
2023/01/13 02:37:39;;;;;;;24.60;5.67;;;;;;;;;;5065746;28;20201;-79
2023/01/13 02:40:04;;;;;;;21.27;4.33;;;;;;;;;;5059201;28;20286;-79
2023/01/13 02:45:18;;;;;;;19.37;4.40;;;;;;;;;;5060699;28;20207;-80
2023/01/13 02:47:46;;;;;;;16.70;3.80;;;;;;;;;;5056870;28;20294;-80
2023/01/13 02:50:16;;;;;;;23.07;3.80;;;;;;;;;;5054643;28;20205;-80
2023/01/13 02:52:44;;;;;;;19.97;3.53;;;;;;;;;;5059750;28;20268;-79
2023/01/13 02:55:35;;;;;;;20.73;4.23;;;;;;;;;;5054623;28;20185;-79
2023/01/13 02:58:03;;;;;;;20.37;3.23;;;;;;;;;;5059598;28;20267;-80
2023/01/13 03:00:28;;;;;;;29.43;4.23;;;;;;;;;;5067038;28;21029;-80
2023/01/13 03:02:53;;;;;;;20.13;4.03;;;;;;;;;;5069374;28;20312;-79
2023/01/13 03:05:19;;;;;;;21.17;4.13;;;;;;;;;;5059126;28;20169;-80
2023/01/13 03:07:47;;;;;;;23.43;4.33;;;;;;;;;;5053927;28;20204;-80
2023/01/13 03:10:21;;;;;;;35.30;5.37;;;;;;;;;;5057107;28;20180;-80
2023/01/13 03:12:52;;;;;;;16.83;3.50;;;;;;;;;;5061782;28;20195;-79
2023/01/13 03:15:20;;;;;;;21.67;3.70;;;;;;;;;;5072736;28;20238;-78
2023/01/13 03:17:53;;;;;;;27.00;5.60;;;;;;;;;;5057744;28;20223;-77
2023/01/13 03:20:24;;;;;;;20.60;4.27;;;;;;;;;;5071105;28;20169;-81
2023/01/13 03:22:49;;;;;;;14.57;3.60;;;;;;;;;;5068548;28;20169;-77
2023/01/13 03:25:22;;;;;;;23.60;4.90;;;;;;;;;;5063686;28;20172;-81
2023/01/13 03:27:56;;;;;;;14.27;3.67;;;;;;;;;;5056296;28;20196;-78
2023/01/13 03:30:24;;;;;;;14.87;3.73;;;;;;;;;;5059435;28;20177;-79
2023/01/13 03:32:52;;;;;;;21.73;3.53;;;;;;;;;;5059773;28;20554;-79
2023/01/13 03:35:21;;;;;;;19.93;3.87;;;;;;;;;;5049709;28;20178;-79
2023/01/13 03:37:48;;;;;;;15.23;4.00;;;;;;;;;;5054308;28;20209;-79
2023/01/13 03:40:34;;;;;;;18.83;3.33;;;;;;;;;;5052295;28;20183;-79
2023/01/13 03:45:48;;;;;;;13.37;4.03;;;;;;;;;;5056997;28;20184;-79
2023/01/13 03:48:15;;;;;;;14.40;3.43;;;;;;;;;;5069103;28;20173;-79
2023/01/13 03:50:48;;;;;;;15.47;2.97;;;;;;;;;;5070452;28;20259;-80
2023/01/13 03:53:17;;;;;;;17.50;3.43;;;;;;;;;;5070322;28;20474;-80
2023/01/13 03:55:54;;;;;;;13.30;2.77;;;;;;;;;;5068170;28;20189;-79
2023/01/13 03:58:24;;;;;;;12.00;2.23;;;;;;;;;;5069393;28;20210;-80
2023/01/13 04:01:04;;;;;;;7.80;2.10;;;;;;;;;;5071630;28;20169;-78
2023/01/13 04:03:32;;;;;;;9.03;2.37;;;;;;;;;;5069954;28;20265;-80
2023/01/13 04:06:03;;;;;;;4.97;2.10;;;;;;;;;;5071064;28;20189;-80
2023/01/13 04:08:29;;;;;;;8.20;2.67;;;;;;;;;;5063448;28;20235;-80
2023/01/13 04:10:59;;;;;;;7.23;1.80;;;;;;;;;;5065294;28;20189;-79
2023/01/13 04:13:27;;;;;;;14.70;2.23;;;;;;;;;;5071416;28;20180;-80
2023/01/13 04:15:52;;;;;;;7.37;1.20;;;;;;;;;;5067261;28;20209;-80
2023/01/13 04:18:21;;;;;;;4.23;1.67;;;;;;;;;;5070719;28;20737;-80
2023/01/13 04:20:47;;;;;;;8.17;2.00;;;;;;;;;;5070957;28;20181;-80
2023/01/13 04:23:12;;;;;;;12.67;2.00;;;;;;;;;;5064170;28;20177;-80
2023/01/13 04:25:38;;;;;;;7.20;1.57;;;;;;;;;;5071556;28;20266;-79
2023/01/13 04:28:03;;;;;;;9.93;2.57;;;;;;;;;;5071033;28;20555;-79
2023/01/13 04:30:28;;;;;;;4.57;1.63;;;;;;;;;;5068493;28;20212;-79
2023/01/13 04:32:54;;;;;;;6.83;1.73;;;;;;;;;;5069919;28;20216;-79
2023/01/13 04:35:19;;;;;;;7.57;1.50;;;;;;;;;;5071101;28;20223;-79
2023/01/13 04:37:44;;;;;;;8.77;1.10;;;;;;;;;;5069724;28;20209;-80
2023/01/13 04:40:09;;;;;;;6.93;1.50;;;;;;;;;;5067980;28;20191;-79
2023/01/13 04:42:35;;;;;;;9.73;2.07;;;;;;;;;;5073178;28;20169;-79
2023/01/13 04:45:00;;;;;;;7.70;1.60;;;;;;;;;;5066788;28;20177;-79
2023/01/13 04:47:25;;;;;;;5.40;1.30;;;;;;;;;;5070550;28;20552;-79
2023/01/13 04:49:50;;;;;;;7.20;1.50;;;;;;;;;;5071465;28;20169;-78
2023/01/13 04:52:15;;;;;;;12.47;2.83;;;;;;;;;;5071840;28;20180;-78
2023/01/13 04:54:41;;;;;;;8.27;1.60;;;;;;;;;;5068117;28;20200;-78
2023/01/13 04:57:06;;;;;;;8.03;1.53;;;;;;;;;;5072162;28;20723;-79
2023/01/13 04:59:31;;;;;;;8.83;1.90;;;;;;;;;;5070865;28;20169;-79
2023/01/13 05:01:56;;;;;;;10.10;1.77;;;;;;;;;;5070578;28;20209;-79
2023/01/13 05:04:21;;;;;;;13.17;2.03;;;;;;;;;;5067799;28;20261;-78
2023/01/13 05:06:47;;;;;;;10.53;1.63;;;;;;;;;;5073191;28;20193;-78
2023/01/13 05:09:14;;;;;;;12.90;2.33;;;;;;;;;;5069560;28;20169;-78
2023/01/13 05:17:08;;;;;;;6.87;2.03;;;;;;;;;;5068105;28;20262;-79
2023/01/13 05:19:34;;;;;;;10.93;3.00;;;;;;;;;;5068435;28;20185;-79
2023/01/13 05:27:27;;;;;;;13.67;2.90;;;;;;;;;;5069259;28;20206;-79
2023/01/13 05:29:53;;;;;;;17.73;2.30;;;;;;;;;;5068446;28;20271;-80
2023/01/13 05:32:18;;;;;;;11.23;2.40;;;;;;;;;;5071675;28;20235;-79
2023/01/13 05:34:44;;;;;;;13.03;2.70;;;;;;;;;;5072654;28;20646;-79
2023/01/13 05:37:10;;;;;;;10.17;2.30;;;;;;;;;;5068813;28;20209;-79
2023/01/13 05:45:04;;;;;;;7.40;1.97;;;;;;;;;;5053141;28;20184;-79
2023/01/13 05:47:30;;;;;;;11.77;2.60;;;;;;;;;;5056428;28;20204;-79
2023/01/13 05:49:55;;;;;;;15.90;3.03;;;;;;;;;;5067142;28;20177;-79
2023/01/13 05:52:20;;;;;;;10.63;2.03;;;;;;;;;;5051838;28;20179;-79
2023/01/13 05:54:45;;;;;;;10.80;2.43;;;;;;;;;;5050058;28;20200;-79
2023/01/13 05:57:11;;;;;;;15.67;2.30;;;;;;;;;;5058763;28;20212;-79
2023/01/13 05:59:36;;;;;;;9.43;2.33;;;;;;;;;;5052881;28;20200;-78
2023/01/13 06:02:01;;;;;;;15.93;2.30;;;;;;;;;;5051008;28;20206;-79
2023/01/13 06:04:26;;;;;;;8.40;1.90;;;;;;;;;;5055653;28;20264;-79
2023/01/13 06:06:51;;;;;;;12.43;2.60;;;;;;;;;;5053147;28;20203;-79
2023/01/13 06:09:17;;;;;;;11.20;2.67;;;;;;;;;;5055448;28;20543;-79
2023/01/13 06:11:42;;;;;;;11.80;2.50;;;;;;;;;;5050017;28;20214;-79
2023/01/13 06:14:07;;;;;;;11.83;2.20;;;;;;;;;;5053261;28;20174;-79
2023/01/13 06:16:32;;;;;;;18.63;3.30;;;;;;;;;;5062992;28;20239;-78
2023/01/13 06:18:57;;;;;;;11.40;2.20;;;;;;;;;;5064696;28;20675;-78
2023/01/13 06:21:22;;;;;;;17.37;3.10;;;;;;;;;;5064594;28;20185;-78
2023/01/13 06:23:48;;;;;;;17.23;3.37;;;;;;;;;;5073024;28;20214;-78
2023/01/13 06:26:16;;;;;;;20.23;3.10;;;;;;;;;;5060315;28;20571;-79
2023/01/13 06:28:41;;;;;;;13.50;2.53;;;;;;;;;;5068396;28;20586;-79
2023/01/13 06:31:08;;;;;;;15.60;2.47;;;;;;;;;;5067447;28;20218;-77
2023/01/13 06:33:37;;;;;;;19.47;4.03;;;;;;;;;;5076683;28;20187;-77
2023/01/13 06:36:05;;;;;;;14.03;3.93;;;;;;;;;;5054637;28;20543;-77
2023/01/13 06:38:33;;;;;;;12.80;2.27;;;;;;;;;;5054250;28;20212;-77
2023/01/13 06:40:58;;;;;;;10.60;2.80;;;;;;;;;;5072747;28;20183;-78
2023/01/13 06:43:23;;;;;;;14.70;2.03;;;;;;;;;;5057054;28;20268;-80
2023/01/13 06:45:52;;;;;;;12.17;2.17;;;;;;;;;;5072030;28;20588;-79
2023/01/13 06:48:20;;;;;;;15.17;2.87;;;;;;;;;;5063900;28;20202;-79
2023/01/13 06:50:45;;;;;;;8.43;2.47;;;;;;;;;;5057571;28;20181;-79
2023/01/13 06:53:11;;;;;;;16.23;2.67;;;;;;;;;;5059039;28;20180;-78
2023/01/13 06:55:36;;;;;;;14.77;3.83;;;;;;;;;;5055444;28;20651;-78
2023/01/13 06:58:01;;;;;;;13.97;2.40;;;;;;;;;;5053506;28;20226;-78
2023/01/13 07:00:27;;;;;;;17.90;3.70;;;;;;;;;;5053931;28;20506;-79
2023/01/13 07:02:52;;;;;;;16.13;3.33;;;;;;;;;;5058204;28;20602;-78
2023/01/13 07:05:17;;;;;;;15.87;2.33;;;;;;;;;;5069473;28;20235;-79
2023/01/13 07:07:43;;;;;;;21.30;4.37;;;;;;;;;;5054474;28;20248;-79
2023/01/13 07:10:11;;;;;;;16.43;3.50;;;;;;;;;;5053438;28;20683;-78
2023/01/13 07:15:21;;;;;;;19.50;2.90;;;;;;;;;;5057894;28;20319;-79
2023/01/13 07:17:46;;;;;;;16.30;2.80;;;;;;;;;;5055384;28;20749;-79
2023/01/13 07:20:11;;;;;;;14.07;3.67;;;;;;;;;;5057727;28;20189;-78
2023/01/13 07:22:36;;;;;;;19.47;3.87;;;;;;;;;;5054664;28;20192;-78
2023/01/13 07:25:03;;;;;;;15.27;3.60;;;;;;;;;;5056275;28;20662;-78
2023/01/13 07:27:28;;;;;;;15.13;2.87;;;;;;;;;;5053587;28;20197;-79
2023/01/13 07:29:53;;;;;;;17.47;3.17;;;;;;;;;;5069935;28;20687;-78
2023/01/13 07:32:18;;;;;;;12.10;2.93;;;;;;;;;;5071514;28;20593;-79
2023/01/13 07:34:43;;;;;;;10.90;2.87;;;;;;;;;;5061078;28;20192;-79
2023/01/13 07:37:09;;;;;;;15.53;2.60;;;;;;;;;;5053889;28;20272;-79
2023/01/13 07:39:34;;;;;;;17.40;2.80;;;;;;;;;;5055478;28;20264;-79
2023/01/13 07:44:43;;;;;;;11.30;2.87;;;;;;;;;;5054299;28;20205;-78
2023/01/13 07:47:10;;;;;;;19.60;4.40;;;;;;;;;;5064144;28;20205;-79
2023/01/13 07:49:35;;;;;;;13.87;2.70;;;;;;;;;;5073474;28;20169;-78
2023/01/13 07:52:00;;;;;;;13.00;3.60;;;;;;;;;;5073706;28;20175;-78
2023/01/13 07:54:26;;;;;;;13.33;3.17;;;;;;;;;;5072488;28;20707;-78
2023/01/13 07:56:51;;;;;;;12.43;3.27;;;;;;;;;;5073825;28;20233;-78
2023/01/13 07:59:16;;;;;;;10.50;2.33;;;;;;;;;;5072276;28;20694;-78
2023/01/13 08:01:41;;;;;;;13.53;2.93;;;;;;;;;;5084095;28;21006;-78
2023/01/13 08:04:06;;;;;;;13.53;3.27;;;;;;;;;;5073516;28;20180;-79
2023/01/13 08:06:32;;;;;;;11.53;2.03;;;;;;;;;;5073715;28;20223;-79
2023/01/13 08:08:57;;;;;;;16.63;2.23;;;;;;;;;;5071533;28;20177;-78
2023/01/13 08:11:22;;;;;;;16.20;3.80;;;;;;;;;;5073455;28;20658;-79
2023/01/13 08:13:47;;;;;;;9.70;2.07;;;;;;;;;;5073014;28;20181;-78
2023/01/13 08:16:13;;;;;;;16.60;2.90;;;;;;;;;;5068310;28;20250;-78
2023/01/13 08:18:39;;;;;;;13.20;3.17;;;;;;;;;;5065821;28;20209;-79
2023/01/13 08:21:05;;;;;;;10.03;2.03;;;;;;;;;;5072404;28;20745;-79
2023/01/13 08:23:30;;;;;;;10.37;2.20;;;;;;;;;;5068469;28;20184;-79
2023/01/13 08:26:03;;;;;;;11.77;2.80;;;;;;;;;;5070547;28;20196;-79
2023/01/13 08:28:29;;;;;;;10.63;2.60;;;;;;;;;;5068880;28;20186;-79
2023/01/13 08:30:57;;;;;;;11.80;3.00;;;;;;;;;;5072892;28;20808;-79
2023/01/13 08:33:22;;;;;;;14.30;3.43;;;;;;;;;;5064214;28;20187;-79
2023/01/13 08:35:51;;;;;;;11.10;2.63;;;;;;;;;;5064135;28;20177;-79
2023/01/13 08:38:16;;;;;;;14.67;3.57;;;;;;;;;;5062842;28;20265;-79
2023/01/13 08:40:41;;;;;;;11.97;3.20;;;;;;;;;;5058011;28;20169;-78
2023/01/13 08:43:06;;;;;;;17.03;3.57;;;;;;;;;;5055830;28;20208;-78
2023/01/13 08:45:32;;;;;;;18.60;4.13;;;;;;;;;;5054670;28;20650;-79
2023/01/13 08:47:57;;;;;;;13.17;2.67;;;;;;;;;;5051657;28;20280;-78
2023/01/13 08:50:22;;;;;;;9.97;2.70;;;;;;;;;;5069899;28;20238;-79
2023/01/13 08:52:48;;;;;;;14.47;3.40;;;;;;;;;;5055691;28;20239;-78
2023/01/13 08:55:13;;;;;;;9.43;2.47;;;;;;;;;;5051092;28;20177;-79
2023/01/13 08:57:38;;;;;;;10.53;3.13;;;;;;;;;;5070757;28;20213;-78
2023/01/13 09:00:04;;;;;;;10.43;2.40;;;;;;;;;;5059063;28;20192;-79
2023/01/13 09:02:29;;;;;;;14.70;3.30;;;;;;;;;;5056096;28;20177;-78
2023/01/13 09:04:55;;;;;;;19.23;3.07;;;;;;;;;;5070514;28;20178;-78
2023/01/13 09:07:20;;;;;;;22.93;3.53;;;;;;;;;;5058260;28;20323;-79
2023/01/13 09:09:45;;;;;;;11.03;4.10;;;;;;;;;;5053183;28;20224;-79
2023/01/13 09:14:55;;;;;;;9.00;2.00;;;;;;;;;;5054221;28;20190;-78
2023/01/13 09:17:22;;;;;;;17.90;2.40;;;;;;;;;;5055944;28;20679;-78
2023/01/13 09:19:48;;;;;;;9.63;2.73;;;;;;;;;;5059148;28;20627;-78
2023/01/13 09:22:14;;;;;;;7.67;2.47;;;;;;;;;;5054569;28;20394;-79
2023/01/13 09:24:39;;;;;;;15.77;3.03;;;;;;;;;;5073467;28;20220;-78
2023/01/13 09:27:05;;;;;;;16.10;3.63;;;;;;;;;;5054245;28;20225;-79
2023/01/13 09:29:30;;;;;;;15.00;3.10;;;;;;;;;;5056967;28;20577;-79
2023/01/13 09:31:56;;;;;;;9.93;3.00;;;;;;;;;;5056072;28;20191;-79
2023/01/13 09:37:06;;;;;;;13.63;2.53;;;;;;;;;;5057546;28;20220;-78
2023/01/13 09:39:32;;;;;;;13.37;2.80;;;;;;;;;;5051324;28;20639;-78
2023/01/13 09:45:14;;;;;;;12.20;2.60;;;;;;;;;;5052174;28;20188;-79
2023/01/13 09:47:55;;;;;;;11.40;3.83;;;;;;;;;;5045749;28;20694;-79
2023/01/13 09:50:43;;;;;;;19.20;2.30;;;;;;;;;;5053342;28;20251;-79
2023/01/13 09:53:12;;;;;;;14.47;4.27;;;;;;;;;;5036092;28;20204;-79
2023/01/13 09:55:37;;;;;;;12.50;4.07;;;;;;;;;;5052587;28;20184;-79
2023/01/13 09:58:10;;;;;;;20.83;3.37;;;;;;;;;;5051697;28;20213;-79
2023/01/13 10:00:43;;;;;;;12.80;3.07;;;;;;;;;;5051534;28;20215;-79
2023/01/13 10:03:17;;;;;;;14.20;2.93;;;;;;;;;;5053949;28;20170;-79
2023/01/13 10:05:43;;;;;;;16.63;3.13;;;;;;;;;;5051781;28;20185;-79
2023/01/13 10:08:21;;;;;;;13.17;2.70;;;;;;;;;;5052843;28;20197;-79
2023/01/13 10:10:50;;;;;;;13.57;3.40;;;;;;;;;;5049549;28;20705;-79
2023/01/13 10:13:18;;;;;;;21.53;4.53;;;;;;;;;;5049824;28;20203;-79
2023/01/13 10:16:04;;;;;;;15.60;3.03;;;;;;;;;;5050178;28;20213;-79
2023/01/13 10:18:37;;;;;;;17.67;2.87;;;;;;;;;;5031856;28;20216;-79
2023/01/13 10:21:03;;;;;;;14.10;2.87;;;;;;;;;;5048433;28;20188;-79
2023/01/13 10:23:37;;;;;;;12.43;2.70;;;;;;;;;;5053976;28;20561;-79
2023/01/13 10:26:23;;;;;;;11.67;3.07;;;;;;;;;;5049799;28;20212;-79
2023/01/13 10:28:52;;;;;;;11.53;3.47;;;;;;;;;;5051270;28;20199;-79
2023/01/13 10:31:18;;;;;;;17.03;3.03;;;;;;;;;;5051204;28;20701;-79
2023/01/13 10:33:43;;;;;;;10.63;2.23;;;;;;;;;;5049335;28;20214;-78
2023/01/13 10:36:13;;;;;;;11.03;2.77;;;;;;;;;;5065679;28;20223;-77
2023/01/13 10:38:38;;;;;;;12.53;3.10;;;;;;;;;;5064639;28;20200;-79
2023/01/13 10:41:05;;;;;;;16.73;4.17;;;;;;;;;;5047004;28;20639;-79
2023/01/13 10:43:30;;;;;;;11.17;3.27;;;;;;;;;;5053617;28;20169;-79
2023/01/13 10:45:57;;;;;;;23.73;2.77;;;;;;;;;;5051355;28;20255;-78
2023/01/13 10:48:30;;;;;;;9.03;2.33;;;;;;;;;;5055416;28;20176;-79
2023/01/13 10:50:55;;;;;;;17.53;3.83;;;;;;;;;;5054904;28;20663;-77
2023/01/13 10:53:24;;;;;;;13.63;3.40;;;;;;;;;;5050255;28;20178;-77
2023/01/13 10:56:00;;;;;;;10.73;2.40;;;;;;;;;;5070526;28;20205;-77
2023/01/13 10:58:26;;;;;;;11.27;3.13;;;;;;;;;;5053889;28;20213;-77
2023/01/13 11:01:02;;;;;;;11.53;2.70;;;;;;;;;;5057502;28;20188;-78
2023/01/13 11:03:35;;;;;;;12.73;3.07;;;;;;;;;;5057565;28;20181;-78
2023/01/13 11:06:00;;;;;;;5.33;1.57;;;;;;;;;;5053728;28;20228;-78
2023/01/13 11:08:43;;;;;;;12.73;2.07;;;;;;;;;;5053308;28;20209;-79
2023/01/13 11:11:41;;;;;;;10.47;2.70;;;;;;;;;;5070215;28;20284;-79
2023/01/13 11:16:57;;;;;;;8.03;1.97;;;;;;;;;;5056072;28;21582;-78
2023/01/13 11:19:24;;;;;;;7.90;1.90;;;;;;;;;;5055466;28;21881;-77
2023/01/13 11:21:49;;;;;;;14.63;2.17;;;;;;;;;;5055132;28;20255;-78
2023/01/13 11:24:19;;;;;;;9.13;1.77;;;;;;;;;;5059149;28;20264;-77
2023/01/13 11:26:53;;;;;;;11.13;3.57;;;;;;;;;;5054930;28;20201;-77
2023/01/13 11:29:33;;;;;;;14.07;3.27;;;;;;;;;;5055726;28;20255;-78
2023/01/13 11:32:10;;;;;;;15.97;2.27;;;;;;;;;;5059586;28;20602;-77
2023/01/13 11:34:38;;;;;;;10.90;2.13;;;;;;;;;;5055468;28;20548;-78
2023/01/13 11:37:08;;;;;;;9.53;2.23;;;;;;;;;;5053314;28;20307;-78
2023/01/13 11:39:54;;;;;;;11.97;2.27;;;;;;;;;;5054826;28;20222;-77
2023/01/13 11:42:52;;;;;;;8.00;3.03;;;;;;;;;;5055886;28;20173;-77
2023/01/13 11:45:20;;;;;;;6.43;1.67;;;;;;;;;;5038533;28;20676;-77
2023/01/13 11:47:47;;;;;;;9.73;2.90;;;;;;;;;;5058659;28;20258;-77
2023/01/13 11:50:17;;;;;;;11.50;2.20;;;;;;;;;;5077111;28;20189;-77
2023/01/13 11:53:01;;;;;;;17.40;3.20;;;;;;;;;;5072468;28;20188;-77
2023/01/13 11:55:33;;;;;;;10.40;2.13;;;;;;;;;;5054891;28;20181;-78
2023/01/13 11:57:59;;;;;;;7.53;2.10;;;;;;;;;;5055368;28;20204;-78
2023/01/13 12:00:43;;;;;;;8.43;2.00;;;;;;;;;;5053265;28;20181;-77
2023/01/13 12:03:23;;;;;;;11.03;2.47;;;;;;;;;;5052028;28;20682;-78
2023/01/13 12:06:01;;;;;;;12.10;2.77;;;;;;;;;;5049401;28;20170;-77
2023/01/13 12:08:36;;;;;;;11.50;2.07;;;;;;;;;;5054744;28;20180;-79
2023/01/13 12:11:09;;;;;;;11.93;2.90;;;;;;;;;;5062108;28;20744;-79
2023/01/13 12:13:46;;;;;;;13.50;3.00;;;;;;;;;;5052188;28;20242;-79
2023/01/13 12:16:25;;;;;;;7.60;2.20;;;;;;;;;;5051049;28;20188;-78
2023/01/13 12:19:00;;;;;;;7.37;2.40;;;;;;;;;;5067642;28;20216;-78
2023/01/13 12:21:31;;;;;;;10.00;1.80;;;;;;;;;;5068272;28;20173;-78
2023/01/13 12:24:05;;;;;;;10.50;2.30;;;;;;;;;;5052031;28;20177;-78
2023/01/13 12:26:33;;;;;;;14.70;3.23;;;;;;;;;;5052886;28;20193;-78
2023/01/13 12:29:03;;;;;;;9.73;2.40;;;;;;;;;;5066177;28;20212;-78
2023/01/13 12:31:28;;;;;;;11.27;2.50;;;;;;;;;;5068205;28;20177;-78
2023/01/13 12:34:03;;;;;;;15.77;1.90;;;;;;;;;;5055903;28;20235;-79
2023/01/13 12:36:33;;;;;;;11.57;2.90;;;;;;;;;;5054514;28;20188;-79
2023/01/13 12:39:10;;;;;;;10.93;2.20;;;;;;;;;;5054151;28;20215;-79
2023/01/13 12:44:15;;;;;;;7.50;1.47;;;;;;;;;;5052081;28;20295;-78
2023/01/13 12:44:30;;;;;;;8.80;1.37;;;;;;;;;;5050978;28;20300;-78
2023/01/13 12:46:56;;;;;;;8.43;2.17;;;;;;;;;;5069098;28;20298;-78
2023/01/13 12:49:23;;;;;;;8.93;2.20;;;;;;;;;;5054449;28;20185;-78
2023/01/13 12:51:50;;;;;;;7.67;1.73;;;;;;;;;;5055173;28;20273;-78
2023/01/13 12:54:34;;;;;;;7.77;1.70;;;;;;;;;;5054050;28;20201;-78
2023/01/13 12:56:59;;;;;;;9.37;2.40;;;;;;;;;;5051230;28;20209;-78
2023/01/13 12:59:25;;;;;;;8.43;2.07;;;;;;;;;;5051609;28;20267;-78
2023/01/13 13:01:51;;;;;;;16.20;3.47;;;;;;;;;;5052070;28;20619;-77
2023/01/13 13:04:17;;;;;;;9.00;2.27;;;;;;;;;;5049323;28;20227;-77
2023/01/13 13:06:47;;;;;;;6.30;1.97;;;;;;;;;;5070046;28;20248;-78
2023/01/13 13:09:17;;;;;;;8.00;1.60;;;;;;;;;;5053066;28;20182;-78
2023/01/13 13:14:40;;;;;;;14.30;2.20;;;;;;;;;;5052977;28;20188;-78
2023/01/13 13:17:27;;;;;;;8.67;1.57;;;;;;;;;;5055016;28;20197;-77
2023/01/13 13:19:52;;;;;;;6.30;1.77;;;;;;;;;;5051908;28;20185;-78
2023/01/13 13:22:18;;;;;;;11.47;2.27;;;;;;;;;;5052124;28;20654;-77
2023/01/13 13:24:47;;;;;;;10.33;1.77;;;;;;;;;;5057109;28;21151;-77
2023/01/13 13:27:30;;;;;;;7.97;1.80;;;;;;;;;;5057507;28;21032;-77
2023/01/13 13:29:55;;;;;;;9.10;2.03;;;;;;;;;;5056360;28;20196;-78
2023/01/13 13:32:20;;;;;;;11.43;1.93;;;;;;;;;;5056324;28;20204;-77
2023/01/13 13:34:46;;;;;;;7.50;1.83;;;;;;;;;;5055030;28;20177;-78
2023/01/13 13:46:45;;;;;;;9.43;2.03;;;;;;;;;;5050454;28;20280;-78
2023/01/13 13:46:47;;;;;;;8.80;2.33;;;;;;;;;;5019861;28;20209;-78
2023/01/13 13:49:17;;;;;;;7.17;2.13;;;;;;;;;;5019397;28;20267;-78
2023/01/13 13:51:45;;;;;;;9.47;2.13;;;;;;;;;;5053161;28;20182;-78
2023/01/13 13:54:18;;;;;;;10.10;2.13;;;;;;;;;;5051252;28;20180;-78
2023/01/13 13:56:44;;;;;;;8.93;2.20;;;;;;;;;;5056104;28;20296;-78
2023/01/13 13:59:15;;;;;;;10.30;3.90;;;;;;;;;;5051481;28;20578;-78
2023/01/13 14:01:42;;;;;;;12.00;2.63;;;;;;;;;;5052678;28;20551;-78
2023/01/13 14:04:16;;;;;;;11.27;1.67;;;;;;;;;;5054201;28;20185;-77
2023/01/13 14:06:55;;;;;;;8.73;1.67;;;;;;;;;;5047603;28;20193;-78
2023/01/13 14:09:22;;;;;;;9.43;1.80;;;;;;;;;;5053913;28;20189;-78
2023/01/13 14:12:13;;;;;;;8.97;1.80;;;;;;;;;;5053632;28;20227;-78
2023/01/13 14:14:41;;;;;;;5.67;1.50;;;;;;;;;;5051330;28;20201;-78
2023/01/13 14:17:15;;;;;;;12.73;2.30;;;;;;;;;;5051444;28;20863;-78
2023/01/13 14:19:44;;;;;;;4.87;1.57;;;;;;;;;;5050879;28;20255;-78
2023/01/13 14:22:15;;;;;;;7.90;1.70;;;;;;;;;;5051176;28;20182;-77
2023/01/13 14:24:44;;;;;;;10.13;1.50;;;;;;;;;;5052799;28;20181;-77
2023/01/13 14:27:12;;;;;;;15.80;1.50;;;;;;;;;;5052162;28;20192;-78
2023/01/13 14:29:38;;;;;;;14.17;2.20;;;;;;;;;;5051236;28;20186;-77
2023/01/13 14:32:04;;;;;;;6.53;2.03;;;;;;;;;;5074740;28;20183;-78
2023/01/13 14:34:29;;;;;;;7.30;1.90;;;;;;;;;;5054556;28;20177;-77
2023/01/13 14:36:54;;;;;;;10.67;2.20;;;;;;;;;;5055925;28;20688;-77
2023/01/13 14:39:24;;;;;;;9.83;3.00;;;;;;;;;;5056187;28;20316;-78
2023/01/13 14:41:51;;;;;;;8.00;1.70;;;;;;;;;;5075361;28;20529;-78
2023/01/13 14:44:23;;;;;;;9.87;3.10;;;;;;;;;;5057458;28;20180;-77
2023/01/13 14:46:48;;;;;;;8.20;1.90;;;;;;;;;;5058124;28;20204;-78
2023/01/13 14:49:25;;;;;;;8.17;2.00;;;;;;;;;;5058076;28;20639;-77
2023/01/13 14:51:51;;;;;;;6.80;1.43;;;;;;;;;;5059407;28;20184;-78
2023/01/13 14:54:35;;;;;;;7.67;1.93;;;;;;;;;;5057776;28;20181;-78
2023/01/13 14:57:18;;;;;;;11.73;2.00;;;;;;;;;;5053950;28;20220;-77
2023/01/13 14:59:50;;;;;;;9.43;1.97;;;;;;;;;;5055308;28;20188;-78
2023/01/13 15:02:24;;;;;;;11.60;1.57;;;;;;;;;;5058968;28;20272;-78
2023/01/13 15:04:52;;;;;;;10.83;1.60;;;;;;;;;;5059610;28;20189;-78
2023/01/13 15:07:28;;;;;;;11.07;1.73;;;;;;;;;;5056854;28;20192;-77
2023/01/13 15:09:58;;;;;;;10.93;1.87;;;;;;;;;;5053685;28;20184;-77
2023/01/13 15:12:35;;;;;;;8.07;2.73;;;;;;;;;;5058032;28;20203;-77
2023/01/13 15:15:04;;;;;;;9.23;1.57;;;;;;;;;;5055239;28;20755;-78
2023/01/13 15:17:29;;;;;;;10.03;2.10;;;;;;;;;;5054332;28;20201;-78
2023/01/13 15:19:54;;;;;;;9.90;1.73;;;;;;;;;;5052788;28;20259;-78
2023/01/13 15:22:19;;;;;;;7.70;1.97;;;;;;;;;;5056168;28;20217;-78
2023/01/13 15:24:45;;;;;;;12.70;2.47;;;;;;;;;;5052884;28;20187;-78
2023/01/13 15:27:23;;;;;;;12.33;2.17;;;;;;;;;;5070203;28;20283;-78
2023/01/13 15:29:48;;;;;;;8.97;2.00;;;;;;;;;;5069086;28;20212;-78
2023/01/13 15:32:18;;;;;;;7.57;2.90;;;;;;;;;;5071468;28;20212;-78
2023/01/13 15:34:43;;;;;;;7.17;2.00;;;;;;;;;;5054898;28;20763;-78
2023/01/13 15:37:09;;;;;;;9.03;2.20;;;;;;;;;;5060044;28;20196;-78
2023/01/13 15:39:34;;;;;;;10.00;2.43;;;;;;;;;;5054956;28;20209;-78